createdAt,value
2018-05-31T00:00:44.946Z,995.35
2018-05-31T00:01:44.983Z,995.33
2018-05-31T00:02:45.020Z,995.32
2018-05-31T00:03:45.058Z,995.34
2018-05-31T00:04:45.096Z,995.39
2018-05-31T00:05:45.132Z,995.44
2018-05-31T00:06:45.170Z,995.46
2018-05-31T00:07:45.211Z,995.49
2018-05-31T00:08:45.245Z,995.52
2018-05-31T00:09:45.282Z,995.52
2018-05-31T00:10:45.319Z,995.53
2018-05-31T00:11:45.356Z,995.58
2018-05-31T00:12:45.395Z,995.56
2018-05-31T00:13:45.431Z,995.59
2018-05-31T00:14:45.469Z,995.58
2018-05-31T00:15:45.505Z,995.59
2018-05-31T00:16:45.544Z,995.58
2018-05-31T00:17:45.580Z,995.52
2018-05-31T00:18:45.617Z,995.53
2018-05-31T00:19:45.655Z,995.53
2018-05-31T00:20:45.694Z,995.51
2018-05-31T00:21:45.730Z,995.55
2018-05-31T00:22:45.768Z,995.57
2018-05-31T00:23:45.804Z,995.55
2018-05-31T00:24:45.843Z,995.60
2018-05-31T00:25:45.879Z,995.61
2018-05-31T00:26:45.917Z,995.60
2018-05-31T00:27:45.954Z,995.58
2018-05-31T00:28:45.991Z,995.60
2018-05-31T00:29:46.030Z,995.58
2018-05-31T00:30:46.069Z,995.60
2018-05-31T00:31:46.103Z,995.61
2018-05-31T00:32:46.141Z,995.63
2018-05-31T00:33:46.178Z,995.63
2018-05-31T00:34:46.215Z,995.68
2018-05-31T00:35:46.252Z,995.66
2018-05-31T00:36:46.292Z,995.66
2018-05-31T00:37:46.348Z,995.66
2018-05-31T00:38:46.363Z,995.65
2018-05-31T00:39:46.405Z,995.64
2018-05-31T00:40:46.443Z,995.61
2018-05-31T00:41:46.476Z,995.60
2018-05-31T00:42:46.513Z,995.60
2018-05-31T00:43:46.550Z,995.61
2018-05-31T00:44:46.593Z,995.56
2018-05-31T00:45:46.628Z,995.58
2018-05-31T00:46:46.663Z,995.51
2018-05-31T00:47:46.701Z,995.50
2018-05-31T00:48:46.737Z,995.45
2018-05-31T00:49:46.775Z,995.47
2018-05-31T00:50:46.812Z,995.46
2018-05-31T00:51:46.849Z,995.41
2018-05-31T00:52:46.893Z,995.42
2018-05-31T00:53:46.923Z,995.40
2018-05-31T00:54:46.960Z,995.36
2018-05-31T00:55:46.998Z,995.36
2018-05-31T00:56:47.038Z,995.31
2018-05-31T00:57:47.074Z,995.29
2018-05-31T00:58:47.111Z,995.22
2018-05-31T00:59:47.151Z,995.19
2018-05-31T01:00:47.185Z,995.16
2018-05-31T01:01:47.223Z,995.12
2018-05-31T01:02:47.260Z,995.04
2018-05-31T01:03:47.296Z,994.99
2018-05-31T01:04:47.335Z,995.00
2018-05-31T01:05:47.371Z,994.91
2018-05-31T01:06:47.409Z,994.91
2018-05-31T01:07:47.447Z,994.84
2018-05-31T01:08:47.484Z,994.82
2018-05-31T01:09:47.521Z,994.83
2018-05-31T01:10:47.562Z,994.79
2018-05-31T01:11:47.597Z,994.80
2018-05-31T01:12:47.634Z,994.75
2018-05-31T01:13:47.669Z,994.73
2018-05-31T01:14:47.706Z,994.70
2018-05-31T01:15:47.746Z,994.71
2018-05-31T01:16:47.783Z,994.72
2018-05-31T01:17:47.819Z,994.74
2018-05-31T01:18:47.857Z,994.76
2018-05-31T01:19:47.894Z,994.80
2018-05-31T01:20:47.931Z,994.82
2018-05-31T01:21:47.972Z,994.77
2018-05-31T01:22:48.005Z,994.77
2018-05-31T01:23:48.043Z,994.78
2018-05-31T01:24:48.082Z,994.74
2018-05-31T01:25:48.116Z,994.70
2018-05-31T01:26:48.155Z,994.67
2018-05-31T01:27:48.193Z,994.66
2018-05-31T01:28:48.230Z,994.62
2018-05-31T01:29:48.267Z,994.59
2018-05-31T01:30:48.304Z,994.54
2018-05-31T01:31:48.341Z,994.51
2018-05-31T01:32:48.379Z,994.48
2018-05-31T01:33:48.415Z,994.46
2018-05-31T01:34:48.453Z,994.47
2018-05-31T01:35:48.489Z,994.43
2018-05-31T01:36:48.526Z,994.42
2018-05-31T01:37:48.562Z,994.43
2018-05-31T01:38:48.599Z,994.41
2018-05-31T01:39:48.639Z,994.42
2018-05-31T01:40:48.675Z,994.42
2018-05-31T01:41:48.711Z,994.44
2018-05-31T01:42:48.753Z,994.42
2018-05-31T01:43:48.785Z,994.40
2018-05-31T01:44:48.822Z,994.38
2018-05-31T01:45:48.860Z,994.35
2018-05-31T01:46:48.895Z,994.36
2018-05-31T01:47:48.934Z,994.38
2018-05-31T01:48:48.970Z,994.39
2018-05-31T01:49:49.007Z,994.45
2018-05-31T01:50:49.043Z,994.43
2018-05-31T01:51:49.099Z,994.43
2018-05-31T01:52:49.134Z,994.43
2018-05-31T01:53:49.166Z,994.42
2018-05-31T01:54:49.190Z,994.42
2018-05-31T01:55:49.245Z,994.42
2018-05-31T01:56:49.270Z,994.47
2018-05-31T01:57:49.301Z,994.44
2018-05-31T01:58:49.339Z,994.47
2018-05-31T01:59:49.374Z,994.49
2018-05-31T02:00:49.412Z,994.47
2018-05-31T02:01:49.448Z,994.45
2018-05-31T02:02:49.494Z,994.44
2018-05-31T02:03:49.526Z,994.41
2018-05-31T02:04:49.558Z,994.42
2018-05-31T02:05:49.596Z,994.42
2018-05-31T02:06:49.632Z,994.38
2018-05-31T02:07:49.669Z,994.39
2018-05-31T02:08:49.705Z,994.37
2018-05-31T02:09:49.742Z,994.34
2018-05-31T02:10:49.780Z,994.37
2018-05-31T02:11:49.816Z,994.39
2018-05-31T02:12:49.856Z,994.43
2018-05-31T02:13:49.888Z,994.41
2018-05-31T02:14:49.940Z,994.42
2018-05-31T02:15:49.963Z,994.42
2018-05-31T02:16:49.999Z,994.39
2018-05-31T02:17:50.036Z,994.38
2018-05-31T02:18:50.072Z,994.33
2018-05-31T02:19:50.110Z,994.30
2018-05-31T02:20:50.146Z,994.25
2018-05-31T02:21:50.180Z,994.25
2018-05-31T02:22:50.218Z,994.24
2018-05-31T02:23:50.255Z,994.25
2018-05-31T02:24:50.290Z,994.24
2018-05-31T02:25:50.328Z,994.25
2018-05-31T02:26:50.364Z,994.23
2018-05-31T02:27:50.401Z,994.23
2018-05-31T02:28:50.441Z,994.21
2018-05-31T02:29:50.474Z,994.20
2018-05-31T02:30:50.511Z,994.24
2018-05-31T02:31:50.547Z,994.22
2018-05-31T02:32:50.583Z,994.21
2018-05-31T02:33:50.618Z,994.19
2018-05-31T02:34:50.656Z,994.19
2018-05-31T02:35:50.693Z,994.21
2018-05-31T02:36:50.729Z,994.19
2018-05-31T02:37:50.768Z,994.20
2018-05-31T02:38:50.802Z,994.21
2018-05-31T02:39:50.839Z,994.26
2018-05-31T02:40:50.875Z,994.26
2018-05-31T02:41:50.910Z,994.23
2018-05-31T02:42:50.945Z,994.23
2018-05-31T02:43:50.983Z,994.29
2018-05-31T02:44:51.020Z,994.28
2018-05-31T02:45:51.054Z,994.25
2018-05-31T02:46:51.094Z,994.23
2018-05-31T02:47:51.129Z,994.21
2018-05-31T02:48:51.168Z,994.20
2018-05-31T02:49:51.200Z,994.15
2018-05-31T02:50:51.237Z,994.15
2018-05-31T02:51:51.599Z,994.12
2018-05-31T02:52:51.329Z,994.09
2018-05-31T02:53:51.345Z,994.09
2018-05-31T02:54:51.382Z,994.09
2018-05-31T02:55:51.417Z,994.14
2018-05-31T02:56:51.454Z,994.12
2018-05-31T02:57:51.488Z,994.13
2018-05-31T02:58:51.528Z,994.12
2018-05-31T02:59:51.765Z,994.15
2018-05-31T03:00:51.599Z,994.12
2018-05-31T03:01:51.633Z,994.13
2018-05-31T03:02:51.669Z,994.09
2018-05-31T03:03:51.706Z,994.14
2018-05-31T03:04:51.743Z,994.10
2018-05-31T03:05:51.779Z,994.11
2018-05-31T03:06:51.814Z,994.12
2018-05-31T03:07:51.867Z,994.10
2018-05-31T03:08:51.886Z,994.09
2018-05-31T03:09:51.922Z,994.10
2018-05-31T03:10:51.957Z,994.09
2018-05-31T03:11:51.994Z,994.07
2018-05-31T03:12:52.055Z,994.09
2018-05-31T03:13:52.267Z,994.10
2018-05-31T03:14:52.118Z,994.13
2018-05-31T03:15:52.137Z,994.13
2018-05-31T03:16:52.175Z,994.13
2018-05-31T03:17:52.209Z,994.17
2018-05-31T03:18:52.244Z,994.19
2018-05-31T03:19:52.281Z,994.16
2018-05-31T03:20:52.317Z,994.14
2018-05-31T03:21:52.352Z,994.15
2018-05-31T03:22:52.387Z,994.11
2018-05-31T03:23:52.426Z,994.12
2018-05-31T03:24:52.461Z,994.13
2018-05-31T03:25:52.499Z,994.09
2018-05-31T03:26:52.532Z,994.06
2018-05-31T03:27:52.568Z,994.09
2018-05-31T03:28:52.603Z,994.06
2018-05-31T03:29:52.638Z,994.06
2018-05-31T03:30:52.679Z,994.08
2018-05-31T03:31:52.711Z,994.08
2018-05-31T03:32:52.752Z,994.08
2018-05-31T03:33:52.783Z,994.07
2018-05-31T03:34:52.820Z,994.07
2018-05-31T03:35:52.855Z,994.08
2018-05-31T03:36:52.892Z,994.08
2018-05-31T03:37:52.926Z,994.06
2018-05-31T03:38:52.963Z,994.08
2018-05-31T03:39:52.998Z,994.10
2018-05-31T03:40:53.035Z,994.10
2018-05-31T03:41:53.069Z,994.09
2018-05-31T03:42:53.105Z,994.10
2018-05-31T03:43:53.140Z,994.12
2018-05-31T03:44:53.178Z,994.11
2018-05-31T03:45:53.213Z,994.14
2018-05-31T03:46:53.249Z,994.15
2018-05-31T03:47:53.283Z,994.15
2018-05-31T03:48:53.320Z,994.17
2018-05-31T03:49:53.356Z,994.17
2018-05-31T03:50:53.392Z,994.19
2018-05-31T03:51:53.428Z,994.23
2018-05-31T03:52:53.464Z,994.20
2018-05-31T03:53:53.505Z,994.25
2018-05-31T03:54:53.535Z,994.24
2018-05-31T03:55:53.571Z,994.27
2018-05-31T03:56:53.608Z,994.31
2018-05-31T03:57:53.642Z,994.30
2018-05-31T03:58:53.678Z,994.32
2018-05-31T03:59:53.715Z,994.37
2018-05-31T04:00:53.751Z,994.38
2018-05-31T04:01:53.786Z,994.36
2018-05-31T04:02:53.822Z,994.35
2018-05-31T04:03:53.858Z,994.36
2018-05-31T04:04:53.893Z,994.35
2018-05-31T04:05:53.930Z,994.33
2018-05-31T04:06:53.965Z,994.29
2018-05-31T04:07:54.001Z,994.28
2018-05-31T04:08:54.038Z,994.30
2018-05-31T04:09:54.072Z,994.31
2018-05-31T04:10:54.110Z,994.33
2018-05-31T04:11:54.145Z,994.34
2018-05-31T04:12:54.180Z,994.33
2018-05-31T04:13:54.218Z,994.32
2018-05-31T04:14:54.252Z,994.33
2018-05-31T04:15:54.332Z,994.33
2018-05-31T04:16:54.323Z,994.30
2018-05-31T04:17:54.359Z,994.30
2018-05-31T04:18:54.394Z,994.35
2018-05-31T04:19:54.431Z,994.33
2018-05-31T04:20:54.467Z,994.31
2018-05-31T04:21:54.502Z,994.30
2018-05-31T04:22:54.538Z,994.29
2018-05-31T04:23:54.575Z,994.30
2018-05-31T04:24:54.611Z,994.31
2018-05-31T04:25:54.646Z,994.31
2018-05-31T04:26:54.682Z,994.35
2018-05-31T04:27:54.718Z,994.32
2018-05-31T04:28:54.755Z,994.36
2018-05-31T04:29:54.790Z,994.32
2018-05-31T04:30:54.827Z,994.40
2018-05-31T04:31:54.862Z,994.41
2018-05-31T04:32:54.899Z,994.44
2018-05-31T04:33:54.933Z,994.44
2018-05-31T04:34:54.972Z,994.48
2018-05-31T04:35:55.005Z,994.46
2018-05-31T04:36:55.043Z,994.49
2018-05-31T04:37:55.079Z,994.53
2018-05-31T04:38:55.114Z,994.52
2018-05-31T04:39:55.149Z,994.54
2018-05-31T04:40:55.190Z,994.53
2018-05-31T04:41:55.222Z,994.59
2018-05-31T04:42:55.258Z,994.57
2018-05-31T04:43:55.295Z,994.59
2018-05-31T04:44:55.330Z,994.55
2018-05-31T04:45:55.367Z,994.57
2018-05-31T04:46:55.403Z,994.61
2018-05-31T04:47:55.439Z,994.64
2018-05-31T04:48:55.475Z,994.66
2018-05-31T04:49:55.511Z,994.63
2018-05-31T04:50:55.547Z,994.67
2018-05-31T04:51:55.584Z,994.67
2018-05-31T04:52:55.621Z,994.62
2018-05-31T04:53:55.655Z,994.67
2018-05-31T04:54:55.691Z,994.64
2018-05-31T04:55:55.728Z,994.62
2018-05-31T04:56:55.764Z,994.66
2018-05-31T04:57:55.801Z,994.63
2018-05-31T04:58:55.836Z,994.60
2018-05-31T04:59:55.873Z,994.56
2018-05-31T05:00:55.913Z,994.51
2018-05-31T05:01:55.945Z,994.56
2018-05-31T05:02:56.014Z,994.54
2018-05-31T05:03:56.018Z,994.54
2018-05-31T05:04:56.056Z,994.55
2018-05-31T05:05:56.091Z,994.51
2018-05-31T05:06:56.129Z,994.54
2018-05-31T05:07:56.164Z,994.55
2018-05-31T05:08:56.202Z,994.48
2018-05-31T05:09:56.243Z,994.50
2018-05-31T05:10:56.275Z,994.54
2018-05-31T05:11:56.313Z,994.53
2018-05-31T05:12:56.350Z,994.55
2018-05-31T05:13:56.386Z,994.53
2018-05-31T05:14:56.423Z,994.60
2018-05-31T05:15:56.460Z,994.68
2018-05-31T05:16:56.498Z,994.70
2018-05-31T05:17:56.533Z,994.69
2018-05-31T05:18:56.571Z,994.75
2018-05-31T05:19:56.609Z,994.76
2018-05-31T05:20:56.647Z,994.74
2018-05-31T05:21:56.683Z,994.71
2018-05-31T05:22:56.721Z,994.74
2018-05-31T05:23:56.758Z,994.74
2018-05-31T05:24:56.799Z,994.77
2018-05-31T05:25:56.831Z,994.78
2018-05-31T05:26:56.873Z,994.80
2018-05-31T05:27:56.909Z,994.84
2018-05-31T05:28:56.947Z,994.83
2018-05-31T05:29:56.982Z,994.84
2018-05-31T05:30:57.022Z,994.86
2018-05-31T05:31:57.063Z,994.88
2018-05-31T05:32:57.096Z,994.91
2018-05-31T05:33:57.134Z,994.91
2018-05-31T05:34:57.172Z,994.91
2018-05-31T05:35:57.209Z,994.92
2018-05-31T05:36:57.247Z,994.89
2018-05-31T05:37:57.284Z,994.87
2018-05-31T05:38:57.323Z,994.88
2018-05-31T05:39:57.361Z,994.84
2018-05-31T05:40:57.399Z,994.87
2018-05-31T05:41:57.436Z,994.85
2018-05-31T05:42:57.474Z,994.84
2018-05-31T05:43:57.511Z,994.83
2018-05-31T05:44:57.551Z,994.84
2018-05-31T05:45:57.587Z,994.85
2018-05-31T05:46:57.625Z,994.83
2018-05-31T05:47:57.663Z,994.79
2018-05-31T05:48:57.703Z,994.82
2018-05-31T05:49:57.738Z,994.76
2018-05-31T05:50:57.777Z,994.77
2018-05-31T05:51:57.814Z,994.86
2018-05-31T05:52:57.854Z,994.84
2018-05-31T05:53:57.889Z,994.85
2018-05-31T05:54:57.926Z,994.86
2018-05-31T05:55:57.970Z,994.82
2018-05-31T05:56:58.004Z,994.82
2018-05-31T05:57:58.040Z,994.85
2018-05-31T05:58:58.079Z,994.86
2018-05-31T05:59:58.116Z,994.82
2018-05-31T06:00:58.155Z,994.83
2018-05-31T06:01:58.193Z,994.86
2018-05-31T06:02:58.229Z,994.84
2018-05-31T06:03:58.268Z,994.89
2018-05-31T06:04:58.306Z,994.90
2018-05-31T06:05:58.343Z,994.90
2018-05-31T06:06:58.379Z,994.95
2018-05-31T06:07:58.419Z,994.94
2018-05-31T06:08:58.455Z,994.95
2018-05-31T06:09:58.519Z,995.04
2018-05-31T06:10:58.531Z,995.05
2018-05-31T06:11:58.569Z,995.07
2018-05-31T06:12:58.606Z,995.05
2018-05-31T06:13:58.644Z,995.06
2018-05-31T06:14:58.684Z,995.08
2018-05-31T06:15:58.720Z,995.08
2018-05-31T06:16:58.758Z,995.12
2018-05-31T06:17:58.794Z,995.09
2018-05-31T06:18:58.835Z,995.09
2018-05-31T06:19:58.871Z,995.09
2018-05-31T06:20:58.909Z,995.10
2018-05-31T06:21:58.987Z,995.10
2018-05-31T06:22:58.987Z,995.15
2018-05-31T06:23:59.023Z,995.12
2018-05-31T06:24:59.061Z,995.13
2018-05-31T06:25:59.098Z,995.15
2018-05-31T06:26:59.137Z,995.16
2018-05-31T06:27:59.173Z,995.20
2018-05-31T06:28:59.213Z,995.21
2018-05-31T06:29:59.252Z,995.25
2018-05-31T06:30:59.288Z,995.25
2018-05-31T06:31:59.327Z,995.28
2018-05-31T06:32:59.365Z,995.28
2018-05-31T06:33:59.402Z,995.30
2018-05-31T06:34:59.441Z,995.26
2018-05-31T06:35:59.478Z,995.29
2018-05-31T06:36:59.517Z,995.28
2018-05-31T06:37:59.553Z,995.29
2018-05-31T06:38:59.593Z,995.31
2018-05-31T06:39:59.631Z,995.33
2018-05-31T06:40:59.670Z,995.29
2018-05-31T06:41:59.706Z,995.27
2018-05-31T06:42:59.766Z,995.26
2018-05-31T06:43:59.796Z,995.23
2018-05-31T06:44:59.822Z,995.22
2018-05-31T06:45:59.883Z,995.28
2018-05-31T06:47:00.204Z,995.25
2018-05-31T06:47:59.957Z,995.29
2018-05-31T06:49:00.196Z,995.31
2018-05-31T06:50:00.014Z,995.36
2018-05-31T06:51:00.052Z,995.38
2018-05-31T06:52:00.091Z,995.39
2018-05-31T06:53:00.130Z,995.42
2018-05-31T06:54:00.167Z,995.42
2018-05-31T06:55:00.207Z,995.48
2018-05-31T06:56:00.244Z,995.49
2018-05-31T06:57:00.283Z,995.49
2018-05-31T06:58:00.322Z,995.50
2018-05-31T06:59:00.360Z,995.52
2018-05-31T07:00:00.399Z,995.57
2018-05-31T07:01:00.439Z,995.50
2018-05-31T07:02:00.477Z,995.56
2018-05-31T07:03:00.515Z,995.58
2018-05-31T07:04:00.555Z,995.60
2018-05-31T07:05:00.594Z,995.60
2018-05-31T07:06:00.632Z,995.61
2018-05-31T07:07:00.671Z,995.67
2018-05-31T07:08:00.711Z,995.67
2018-05-31T07:09:00.755Z,995.67
2018-05-31T07:10:00.792Z,995.71
2018-05-31T07:11:00.827Z,995.67
2018-05-31T07:12:00.866Z,995.71
2018-05-31T07:13:00.905Z,995.71
2018-05-31T07:14:00.944Z,995.73
2018-05-31T07:15:00.984Z,995.72
2018-05-31T07:16:01.034Z,995.73
2018-05-31T07:17:01.062Z,995.79
2018-05-31T07:18:01.103Z,995.78
2018-05-31T07:19:01.141Z,995.71
2018-05-31T07:20:01.180Z,995.67
2018-05-31T07:21:01.219Z,995.68
2018-05-31T07:22:01.259Z,995.68
2018-05-31T07:23:01.298Z,995.69
2018-05-31T07:24:01.344Z,995.65
2018-05-31T07:25:01.376Z,995.66
2018-05-31T07:26:01.415Z,995.64
2018-05-31T07:27:01.454Z,995.61
2018-05-31T07:28:01.495Z,995.56
2018-05-31T07:29:01.538Z,995.63
2018-05-31T07:30:01.573Z,995.61
2018-05-31T07:31:01.616Z,995.62
2018-05-31T07:32:01.653Z,995.62
2018-05-31T07:33:01.693Z,995.61
2018-05-31T07:34:01.733Z,995.64
2018-05-31T07:35:01.772Z,995.64
2018-05-31T07:36:01.811Z,995.63
2018-05-31T07:37:01.857Z,995.64
2018-05-31T07:38:01.890Z,995.64
2018-05-31T07:39:01.931Z,995.69
2018-05-31T07:40:01.971Z,995.71
2018-05-31T07:41:02.012Z,995.69
2018-05-31T07:42:02.051Z,995.70
2018-05-31T07:43:02.108Z,995.69
2018-05-31T07:44:02.131Z,995.70
2018-05-31T07:45:02.171Z,995.75
2018-05-31T07:46:02.209Z,995.74
2018-05-31T07:47:02.273Z,995.75
2018-05-31T07:48:02.290Z,995.79
2018-05-31T07:49:02.331Z,995.77
2018-05-31T07:50:02.385Z,995.80
2018-05-31T07:51:02.411Z,995.83
2018-05-31T07:53:02.492Z,995.84
2018-05-31T07:54:02.531Z,995.80
2018-05-31T07:55:02.575Z,995.83
2018-05-31T07:56:02.613Z,995.84
2018-05-31T07:57:02.653Z,995.83
2018-05-31T07:58:02.714Z,995.84
2018-05-31T07:59:02.936Z,995.84
2018-05-31T08:00:02.774Z,995.83
2018-05-31T08:01:02.815Z,995.83
2018-05-31T08:02:02.876Z,995.93
2018-05-31T08:03:02.922Z,995.95
2018-05-31T08:04:02.959Z,995.91
2018-05-31T08:05:03.180Z,995.89
2018-05-31T08:06:03.017Z,995.91
2018-05-31T08:07:03.058Z,995.93
2018-05-31T08:08:03.099Z,995.93
2018-05-31T08:09:03.144Z,995.93
2018-05-31T08:10:03.180Z,995.93
2018-05-31T08:11:03.221Z,996.00
2018-05-31T08:12:03.262Z,996.01
2018-05-31T08:13:03.303Z,996.05
2018-05-31T08:14:03.344Z,996.09
2018-05-31T08:15:03.385Z,996.21
2018-05-31T08:16:03.429Z,996.14
2018-05-31T08:17:03.467Z,996.11
2018-05-31T08:18:03.508Z,996.20
2018-05-31T08:19:03.553Z,996.22
2018-05-31T08:20:03.592Z,996.22
2018-05-31T08:21:03.633Z,996.24
2018-05-31T08:22:03.672Z,996.23
2018-05-31T08:23:03.715Z,996.27
2018-05-31T08:24:03.756Z,996.29
2018-05-31T08:25:03.800Z,996.23
2018-05-31T08:26:03.839Z,996.24
2018-05-31T08:27:03.880Z,996.31
2018-05-31T08:28:03.924Z,996.20
2018-05-31T08:29:03.967Z,996.23
2018-05-31T08:30:04.007Z,996.34
2018-05-31T08:31:04.049Z,996.33
2018-05-31T08:32:04.089Z,996.31
2018-05-31T08:33:04.132Z,996.35
2018-05-31T08:34:04.181Z,996.35
2018-05-31T08:35:04.216Z,996.30
2018-05-31T08:36:04.257Z,996.27
2018-05-31T08:37:04.302Z,996.26
2018-05-31T08:38:04.342Z,996.21
2018-05-31T08:39:04.383Z,996.22
2018-05-31T08:40:04.426Z,996.21
2018-05-31T08:41:04.470Z,996.25
2018-05-31T08:42:04.541Z,996.21
2018-05-31T08:43:04.555Z,996.21
2018-05-31T08:44:04.603Z,996.25
2018-05-31T08:45:04.638Z,996.21
2018-05-31T08:46:04.680Z,996.23
2018-05-31T08:47:04.722Z,996.24
2018-05-31T08:48:04.763Z,996.27
2018-05-31T08:49:04.815Z,996.30
2018-05-31T08:50:04.850Z,996.29
2018-05-31T08:51:04.945Z,996.31
2018-05-31T08:52:04.933Z,996.44
2018-05-31T08:53:04.975Z,996.42
2018-05-31T08:54:05.015Z,996.47
2018-05-31T08:55:05.059Z,996.46
2018-05-31T08:56:05.100Z,996.42
2018-05-31T08:57:05.143Z,996.44
2018-05-31T08:58:05.184Z,996.41
2018-05-31T08:59:05.249Z,996.37
2018-05-31T09:00:05.269Z,996.35
2018-05-31T09:01:05.641Z,996.40
2018-05-31T09:02:05.353Z,996.33
2018-05-31T09:03:05.417Z,996.33
2018-05-31T09:04:05.459Z,996.34
2018-05-31T09:05:05.503Z,996.44
2018-05-31T09:06:05.541Z,996.37
2018-05-31T09:07:05.564Z,996.36
2018-05-31T09:08:05.607Z,996.36
2018-05-31T09:09:06.275Z,996.43
2018-05-31T09:10:05.693Z,996.35
2018-05-31T09:11:05.737Z,996.38
2018-05-31T09:12:05.775Z,996.46
2018-05-31T09:13:05.818Z,996.43
2018-05-31T09:14:05.859Z,996.41
2018-05-31T09:15:05.954Z,996.36
2018-05-31T09:16:05.945Z,996.43
2018-05-31T09:17:05.987Z,996.43
2018-05-31T09:18:06.030Z,996.46
2018-05-31T09:19:06.073Z,996.47
2018-05-31T09:20:06.115Z,996.50
2018-05-31T09:21:06.158Z,996.45
2018-05-31T09:22:06.218Z,996.48
2018-05-31T09:23:06.258Z,996.51
2018-05-31T09:24:06.309Z,996.53
2018-05-31T09:25:06.327Z,996.43
2018-05-31T09:26:06.369Z,996.36
2018-05-31T09:27:06.412Z,996.33
2018-05-31T09:28:06.454Z,996.44
2018-05-31T09:29:06.497Z,996.49
2018-05-31T09:30:06.538Z,996.47
2018-05-31T09:31:06.581Z,996.46
2018-05-31T09:32:06.623Z,996.43
2018-05-31T09:33:06.666Z,996.43
2018-05-31T09:34:06.709Z,996.40
2018-05-31T09:35:06.787Z,996.38
2018-05-31T09:36:06.794Z,996.41
2018-05-31T09:37:06.837Z,996.35
2018-05-31T09:38:06.878Z,996.33
2018-05-31T09:39:06.922Z,996.23
2018-05-31T09:40:06.965Z,996.24
2018-05-31T09:42:07.049Z,996.24
2018-05-31T09:43:07.091Z,996.26
2018-05-31T09:44:07.143Z,996.26
2018-05-31T09:45:07.177Z,996.25
2018-05-31T09:46:07.220Z,996.25
2018-05-31T09:47:07.263Z,996.28
2018-05-31T09:48:07.630Z,996.25
2018-05-31T09:49:07.352Z,996.26
2018-05-31T09:50:07.389Z,996.30
2018-05-31T09:51:07.451Z,996.36
2018-05-31T09:52:07.476Z,996.29
2018-05-31T09:53:07.519Z,996.33
2018-05-31T09:54:07.560Z,996.30
2018-05-31T09:55:07.604Z,996.31
2018-05-31T09:56:07.646Z,996.30
2018-05-31T09:57:07.689Z,996.29
2018-05-31T09:58:07.757Z,996.25
2018-05-31T09:59:07.775Z,996.26
2018-05-31T10:00:07.836Z,996.25
2018-05-31T10:01:07.883Z,996.26
2018-05-31T10:02:07.922Z,996.22
2018-05-31T10:03:07.945Z,996.22
2018-05-31T10:05:08.032Z,996.15
2018-05-31T10:06:08.079Z,996.18
2018-05-31T10:07:08.118Z,996.17
2018-05-31T10:08:08.159Z,996.15
2018-05-31T10:09:08.202Z,996.15
2018-05-31T10:10:08.568Z,996.10
2018-05-31T10:11:08.287Z,996.06
2018-05-31T10:12:08.655Z,996.02
2018-05-31T10:13:08.373Z,996.04
2018-05-31T10:14:08.414Z,995.97
2018-05-31T10:15:08.458Z,996.00
2018-05-31T10:16:08.501Z,995.95
2018-05-31T10:17:08.570Z,995.97
2018-05-31T10:18:08.909Z,995.91
2018-05-31T10:19:08.631Z,995.91
2018-05-31T10:20:08.690Z,995.89
2018-05-31T10:21:08.730Z,995.90
2018-05-31T10:22:08.774Z,995.81
2018-05-31T10:23:08.822Z,995.85
2018-05-31T10:24:08.843Z,995.81
2018-05-31T10:25:08.906Z,995.84
2018-05-31T10:26:08.928Z,995.92
2018-05-31T10:27:08.989Z,995.94
2018-05-31T10:28:09.015Z,995.93
2018-05-31T10:29:09.079Z,996.00
2018-05-31T10:31:09.146Z,996.07
2018-05-31T10:32:09.191Z,996.10
2018-05-31T10:33:09.230Z,996.22
2018-05-31T10:34:09.272Z,996.24
2018-05-31T10:35:09.317Z,996.24
2018-05-31T10:36:09.563Z,996.18
2018-05-31T10:37:09.405Z,996.20
2018-05-31T10:38:09.448Z,996.04
2018-05-31T10:39:09.493Z,995.95
2018-05-31T10:40:09.537Z,995.97
2018-05-31T10:41:09.584Z,995.93
2018-05-31T10:42:09.630Z,995.95
2018-05-31T10:43:09.673Z,995.97
2018-05-31T10:44:09.717Z,996.02
2018-05-31T10:45:09.763Z,996.02
2018-05-31T10:46:09.828Z,996.12
2018-05-31T10:47:09.851Z,996.14
2018-05-31T10:48:09.895Z,996.12
2018-05-31T10:49:09.941Z,996.13
2018-05-31T10:50:09.983Z,996.09
2018-05-31T10:51:10.028Z,996.08
2018-05-31T10:52:10.073Z,996.00
2018-05-31T10:53:10.117Z,995.99
2018-05-31T10:54:10.159Z,995.99
2018-05-31T10:55:10.204Z,995.97
2018-05-31T10:56:10.247Z,995.98
2018-05-31T10:57:10.290Z,995.98
2018-05-31T10:58:10.334Z,996.02
2018-05-31T10:59:10.380Z,996.01
2018-05-31T11:00:10.421Z,996.02
2018-05-31T11:01:10.467Z,995.99
2018-05-31T11:02:10.506Z,995.97
2018-05-31T11:03:10.548Z,995.96
2018-05-31T11:04:10.591Z,995.93
2018-05-31T11:05:10.637Z,995.91
2018-05-31T11:06:10.677Z,995.95
2018-05-31T11:07:10.718Z,995.95
2018-05-31T11:08:10.762Z,995.93
2018-05-31T11:09:10.803Z,995.91
2018-05-31T11:10:10.845Z,996.00
2018-05-31T11:11:10.888Z,995.97
2018-05-31T11:12:10.936Z,996.01
2018-05-31T11:13:10.975Z,996.00
2018-05-31T11:14:11.014Z,996.03
2018-05-31T11:15:11.055Z,996.01
2018-05-31T11:16:11.099Z,996.00
2018-05-31T11:17:11.140Z,996.02
2018-05-31T11:18:11.181Z,996.00
2018-05-31T11:19:11.223Z,995.96
2018-05-31T11:20:11.266Z,995.96
2018-05-31T11:21:11.307Z,995.93
2018-05-31T11:22:11.348Z,995.92
2018-05-31T11:23:11.391Z,995.92
2018-05-31T11:24:11.433Z,995.89
2018-05-31T11:25:11.479Z,995.88
2018-05-31T11:26:11.516Z,995.90
2018-05-31T11:27:11.558Z,995.88
2018-05-31T11:28:11.600Z,995.88
2018-05-31T11:29:11.651Z,995.87
2018-05-31T11:30:11.682Z,995.91
2018-05-31T11:31:11.740Z,995.94
2018-05-31T11:32:11.767Z,995.99
2018-05-31T11:33:11.808Z,996.17
2018-05-31T11:34:11.849Z,996.27
2018-05-31T11:35:11.891Z,996.87
2018-05-31T11:36:11.933Z,997.18
2018-05-31T11:37:11.977Z,997.22
2018-05-31T11:38:12.019Z,996.75
2018-05-31T11:39:12.063Z,996.88
2018-05-31T11:40:12.107Z,997.14
2018-05-31T11:41:12.151Z,997.09
2018-05-31T11:42:12.196Z,997.12
2018-05-31T11:43:12.243Z,997.12
2018-05-31T11:44:12.292Z,997.14
2018-05-31T11:45:12.338Z,996.62
2018-05-31T11:46:12.385Z,996.88
2018-05-31T11:47:12.432Z,996.51
2018-05-31T11:48:12.481Z,996.66
2018-05-31T11:49:12.533Z,997.04
2018-05-31T11:50:12.581Z,996.58
2018-05-31T11:51:12.631Z,996.64
2018-05-31T11:52:12.687Z,997.18
2018-05-31T11:53:12.732Z,997.12
2018-05-31T11:54:12.782Z,997.15
2018-05-31T11:55:12.834Z,997.09
2018-05-31T11:56:12.885Z,996.27
2018-05-31T11:57:12.936Z,996.98
2018-05-31T11:58:12.987Z,996.95
2018-05-31T11:59:13.040Z,996.96
2018-05-31T12:00:13.099Z,996.97
2018-05-31T12:01:13.144Z,996.94
2018-05-31T12:02:13.196Z,996.97
2018-05-31T12:03:13.248Z,995.59
2018-05-31T12:04:13.301Z,996.26
2018-05-31T12:05:13.356Z,996.36
2018-05-31T12:06:13.409Z,996.98
2018-05-31T12:07:13.459Z,996.14
2018-05-31T12:08:13.578Z,996.56
2018-05-31T12:09:13.568Z,997.00
2018-05-31T12:10:13.619Z,996.93
2018-05-31T12:11:13.673Z,996.93
2018-05-31T12:12:13.741Z,996.93
2018-05-31T12:13:13.781Z,996.87
2018-05-31T12:14:13.833Z,996.85
2018-05-31T12:15:13.890Z,996.84
2018-05-31T12:16:13.944Z,996.81
2018-05-31T12:17:13.998Z,996.81
2018-05-31T12:18:14.055Z,996.79
2018-05-31T12:19:14.109Z,996.80
2018-05-31T12:20:14.164Z,996.76
2018-05-31T12:21:14.266Z,996.78
2018-05-31T12:22:14.275Z,996.72
2018-05-31T12:23:14.330Z,996.69
2018-05-31T12:24:14.387Z,996.65
2018-05-31T12:25:14.446Z,996.67
2018-05-31T12:26:14.498Z,996.71
2018-05-31T12:27:14.555Z,996.72
2018-05-31T12:28:14.613Z,995.88
2018-05-31T12:29:14.668Z,995.25
2018-05-31T12:30:14.728Z,995.26
2018-05-31T12:31:14.783Z,995.19
2018-05-31T12:32:14.848Z,995.85
2018-05-31T12:33:14.891Z,996.14